sensor_id;sensor_type;location;lat;lon;timestamp;pressure;altitude;pressure_sealevel;temperature;humidity
39341;BME280;25059;52.132;21.062;2023-04-21T00:01:02;100785.03;;;9.64;100.00
39341;BME280;25059;52.132;21.062;2023-04-21T00:03:47;100772.09;;;9.56;100.00
39341;BME280;25059;52.132;21.062;2023-04-21T00:06:31;100783.34;;;9.61;100.00
39341;BME280;25059;52.132;21.062;2023-04-21T00:09:20;100785.03;;;9.64;100.00
39341;BME280;25059;52.132;21.062;2023-04-21T00:12:05;100779.69;;;9.67;100.00
39341;BME280;25059;52.132;21.062;2023-04-21T00:14:49;100772.88;;;9.60;100.00
39341;BME280;25059;52.132;21.062;2023-04-21T00:17:34;100771.28;;;9.54;100.00
39341;BME280;25059;52.132;21.062;2023-04-21T00:20:18;100779.34;;;9.48;100.00
39341;BME280;25059;52.132;21.062;2023-04-21T00:23:03;100781.28;;;9.42;100.00
39341;BME280;25059;52.132;21.062;2023-04-21T00:25:48;100769.25;;;9.33;100.00
39341;BME280;25059;52.132;21.062;2023-04-21T00:28:32;100782.34;;;9.34;100.00
39341;BME280;25059;52.132;21.062;2023-04-21T00:31:17;100770.13;;;9.33;100.00
39341;BME280;25059;52.132;21.062;2023-04-21T00:34:01;100783.16;;;9.36;100.00
39341;BME280;25059;52.132;21.062;2023-04-21T00:36:45;100771.91;;;9.31;100.00
39341;BME280;25059;52.132;21.062;2023-04-21T00:39:30;100770.03;;;9.36;100.00
39341;BME280;25059;52.132;21.062;2023-04-21T00:42:15;100775.41;;;9.32;100.00
39341;BME280;25059;52.132;21.062;2023-04-21T00:45:00;100770.19;;;9.30;100.00
39341;BME280;25059;52.132;21.062;2023-04-21T00:47:44;100780.69;;;9.30;100.00
39341;BME280;25059;52.132;21.062;2023-04-21T00:50:29;100770.25;;;9.29;100.00
39341;BME280;25059;52.132;21.062;2023-04-21T00:53:14;100773.22;;;9.15;100.00
39341;BME280;25059;52.132;21.062;2023-04-21T00:55:59;100772.53;;;9.09;100.00
39341;BME280;25059;52.132;21.062;2023-04-21T00:58:58;100768.38;;;9.00;100.00
39341;BME280;25059;52.132;21.062;2023-04-21T01:01:43;100770.88;;;9.04;100.00
39341;BME280;25059;52.132;21.062;2023-04-21T01:04:28;100765.75;;;9.00;100.00
39341;BME280;25059;52.132;21.062;2023-04-21T01:07:12;100773.03;;;8.89;100.00
39341;BME280;25059;52.132;21.062;2023-04-21T01:09:57;100767.72;;;8.92;100.00
39341;BME280;25059;52.132;21.062;2023-04-21T01:12:44;100768.59;;;8.92;100.00
39341;BME280;25059;52.132;21.062;2023-04-21T01:15:28;100760.06;;;8.84;100.00
39341;BME280;25059;52.132;21.062;2023-04-21T01:18:14;100765.38;;;8.81;100.00
39341;BME280;25059;52.132;21.062;2023-04-21T01:21:02;100761.84;;;8.82;100.00
39341;BME280;25059;52.132;21.062;2023-04-21T01:23:47;100765.34;;;8.83;100.00
39341;BME280;25059;52.132;21.062;2023-04-21T01:26:32;100759.38;;;8.76;100.00
39341;BME280;25059;52.132;21.062;2023-04-21T01:29:17;100759.53;;;8.70;100.00
39341;BME280;25059;52.132;21.062;2023-04-21T01:32:04;100763.88;;;8.71;100.00
39341;BME280;25059;52.132;21.062;2023-04-21T01:34:49;100770.28;;;8.59;100.00
39341;BME280;25059;52.132;21.062;2023-04-21T01:37:34;100776.34;;;8.61;100.00
39341;BME280;25059;52.132;21.062;2023-04-21T01:40:19;100762.63;;;8.50;100.00
39341;BME280;25059;52.132;21.062;2023-04-21T01:43:03;100762.63;;;8.50;100.00
39341;BME280;25059;52.132;21.062;2023-04-21T01:45:48;100753.94;;;8.48;100.00
39341;BME280;25059;52.132;21.062;2023-04-21T01:48:49;100766.94;;;8.53;100.00
39341;BME280;25059;52.132;21.062;2023-04-21T01:51:34;100774.09;;;8.46;100.00
39341;BME280;25059;52.132;21.062;2023-04-21T01:54:19;100766.94;;;8.53;100.00
39341;BME280;25059;52.132;21.062;2023-04-21T01:57:04;100759.16;;;8.50;100.00
39341;BME280;25059;52.132;21.062;2023-04-21T01:59:50;100757.63;;;8.41;100.00
39341;BME280;25059;52.132;21.062;2023-04-21T02:02:34;100780.25;;;8.44;100.00
39341;BME280;25059;52.132;21.062;2023-04-21T02:05:19;100763.72;;;8.41;100.00
39341;BME280;25059;52.132;21.062;2023-04-21T02:08:09;100766.91;;;8.54;100.00
39341;BME280;25059;52.132;21.062;2023-04-21T02:10:53;100757.75;;;8.35;100.00
39341;BME280;25059;52.132;21.062;2023-04-21T02:13:38;100763.88;;;8.34;100.00
39341;BME280;25059;52.132;21.062;2023-04-21T02:16:23;100759.59;;;8.30;100.00
39341;BME280;25059;52.132;21.062;2023-04-21T02:19:11;100732.81;;;8.17;100.00
39341;BME280;25059;52.132;21.062;2023-04-21T02:21:55;100758.78;;;8.26;100.00
39341;BME280;25059;52.132;21.062;2023-04-21T02:24:40;100762.28;;;8.27;100.00
39341;BME280;25059;52.132;21.062;2023-04-21T02:27:24;100764.78;;;8.33;100.00
39341;BME280;25059;52.132;21.062;2023-04-21T02:30:09;100754.59;;;8.19;100.00
39341;BME280;25059;52.132;21.062;2023-04-21T02:32:54;100759.88;;;8.18;100.00
39341;BME280;25059;52.132;21.062;2023-04-21T02:35:39;100761.47;;;8.23;100.00
39341;BME280;25059;52.132;21.062;2023-04-21T02:38:23;100760.59;;;8.24;100.00
39341;BME280;25059;52.132;21.062;2023-04-21T02:41:08;100750.31;;;8.15;100.00
39341;BME280;25059;52.132;21.062;2023-04-21T02:43:54;100757.31;;;8.15;100.00
39341;BME280;25059;52.132;21.062;2023-04-21T02:46:39;100762.56;;;8.15;100.00
39341;BME280;25059;52.132;21.062;2023-04-21T02:49:44;100757.44;;;8.08;100.00
39341;BME280;25059;52.132;21.062;2023-04-21T02:52:41;100757.69;;;7.98;100.00
39341;BME280;25059;52.132;21.062;2023-04-21T02:55:26;100764.63;;;8.00;100.00
39341;BME280;25059;52.132;21.062;2023-04-21T02:58:11;100757.38;;;8.12;100.00
39341;BME280;25059;52.132;21.062;2023-04-21T03:00:57;100763.47;;;8.12;100.00
39341;BME280;25059;52.132;21.062;2023-04-21T03:03:42;100750.66;;;8.00;100.00
39341;BME280;25059;52.132;21.062;2023-04-21T03:06:27;100740.34;;;7.92;100.00
39341;BME280;25059;52.132;21.062;2023-04-21T03:09:12;100731.75;;;7.87;100.00
39341;BME280;25059;52.132;21.062;2023-04-21T03:11:56;100733.47;;;7.88;100.00
39341;BME280;25059;52.132;21.062;2023-04-21T03:15:02;100749.03;;;7.94;100.00
39341;BME280;25059;52.132;21.062;2023-04-21T03:18:01;100757.72;;;7.96;100.00
39341;BME280;25059;52.132;21.062;2023-04-21T03:20:46;100757.00;;;7.90;100.00
39341;BME280;25059;52.132;21.062;2023-04-21T03:23:31;100757.88;;;7.89;100.00
39341;BME280;25059;52.132;21.062;2023-04-21T03:26:15;100751.69;;;7.93;100.00
39341;BME280;25059;52.132;21.062;2023-04-21T03:29:00;100751.09;;;7.80;100.00
39341;BME280;25059;52.132;21.062;2023-04-21T03:31:44;100755.16;;;7.93;100.00
39341;BME280;25059;52.132;21.062;2023-04-21T03:34:29;100764.75;;;7.94;100.00
39341;BME280;25059;52.132;21.062;2023-04-21T03:37:14;100752.50;;;7.96;100.00
39341;BME280;25059;52.132;21.062;2023-04-21T03:39:58;100746.06;;;8.11;100.00
39341;BME280;25059;52.132;21.062;2023-04-21T03:42:43;100755.22;;;8.30;100.00
39341;BME280;25059;52.132;21.062;2023-04-21T03:45:27;100749.25;;;8.24;100.00
39341;BME280;25059;52.132;21.062;2023-04-21T03:48:12;100753.44;;;8.31;100.00
39341;BME280;25059;52.132;21.062;2023-04-21T03:50:56;100747.63;;;8.18;100.00
39341;BME280;25059;52.132;21.062;2023-04-21T03:53:42;100762.81;;;8.43;100.00
39341;BME280;25059;52.132;21.062;2023-04-21T03:56:26;100761.03;;;8.45;100.00
39341;BME280;25059;52.132;21.062;2023-04-21T03:59:10;100771.69;;;8.37;100.00
39341;BME280;25059;52.132;21.062;2023-04-21T04:01:54;100770.97;;;8.29;100.00
39341;BME280;25059;52.132;21.062;2023-04-21T04:04:46;100774.88;;;8.50;100.00
39341;BME280;25059;52.132;21.062;2023-04-21T04:07:44;100777.28;;;8.59;100.00
39341;BME280;25059;52.132;21.062;2023-04-21T04:10:29;100781.50;;;8.64;100.00
39341;BME280;25059;52.132;21.062;2023-04-21T04:13:13;100771.09;;;8.61;100.00
39341;BME280;25059;52.132;21.062;2023-04-21T04:16:05;100789.06;;;8.77;100.00
39341;BME280;25059;52.132;21.062;2023-04-21T04:18:50;100781.88;;;8.85;100.00
39341;BME280;25059;52.132;21.062;2023-04-21T04:21:34;100781.66;;;8.94;100.00
39341;BME280;25059;52.132;21.062;2023-04-21T04:24:18;100789.31;;;9.01;100.00
39341;BME280;25059;52.132;21.062;2023-04-21T04:27:05;100779.06;;;8.92;100.00
39341;BME280;25059;52.132;21.062;2023-04-21T04:29:50;100790.72;;;8.81;100.00
39341;BME280;25059;52.132;21.062;2023-04-21T04:32:34;100785.19;;;8.93;100.00
39341;BME280;25059;52.132;21.062;2023-04-21T04:35:21;100793.59;;;9.05;100.00
39341;BME280;25059;52.132;21.062;2023-04-21T04:38:05;100785.66;;;9.09;100.00
39341;BME280;25059;52.132;21.062;2023-04-21T04:40:54;100787.81;;;9.25;100.00
39341;BME280;25059;52.132;21.062;2023-04-21T04:43:38;100799.16;;;9.27;100.00
39341;BME280;25059;52.132;21.062;2023-04-21T04:46:23;100785.66;;;9.09;100.00
39341;BME280;25059;52.132;21.062;2023-04-21T04:49:07;100800.69;;;9.34;100.00
39341;BME280;25059;52.132;21.062;2023-04-21T04:52:06;100801.09;;;9.52;100.00
39341;BME280;25059;52.132;21.062;2023-04-21T04:54:51;100792.34;;;9.53;100.00
39341;BME280;25059;52.132;21.062;2023-04-21T04:57:36;100785.34;;;9.52;100.00
39341;BME280;25059;52.132;21.062;2023-04-21T05:00:20;100800.69;;;9.67;100.00
39341;BME280;25059;52.132;21.062;2023-04-21T05:03:04;100793.22;;;9.83;100.00
39341;BME280;25059;52.132;21.062;2023-04-21T05:05:49;100794.72;;;9.91;100.00
39341;BME280;25059;52.132;21.062;2023-04-21T05:08:34;100790.38;;;9.90;100.00
39341;BME280;25059;52.132;21.062;2023-04-21T05:11:24;100790.84;;;10.04;100.00
39341;BME280;25059;52.132;21.062;2023-04-21T05:14:09;100787.13;;;10.12;99.22
39341;BME280;25059;52.132;21.062;2023-04-21T05:16:54;100788.78;;;10.14;98.93
39341;BME280;25059;52.132;21.062;2023-04-21T05:19:38;100775.38;;;10.25;97.83
39341;BME280;25059;52.132;21.062;2023-04-21T05:22:23;100790.56;;;10.43;96.77
39341;BME280;25059;52.132;21.062;2023-04-21T05:25:09;100786.41;;;10.64;94.79
39341;BME280;25059;52.132;21.062;2023-04-21T05:27:55;100792.50;;;10.64;93.94
39341;BME280;25059;52.132;21.062;2023-04-21T05:30:41;100781.81;;;10.71;93.48
39341;BME280;25059;52.132;21.062;2023-04-21T05:33:26;100796.53;;;10.76;92.11
39341;BME280;25059;52.132;21.062;2023-04-21T05:36:36;100790.13;;;11.10;89.17
39341;BME280;25059;52.132;21.062;2023-04-21T05:39:20;100804.31;;;11.06;89.02
39341;BME280;25059;52.132;21.062;2023-04-21T05:42:05;100779.78;;;11.05;88.33
39341;BME280;25059;52.132;21.062;2023-04-21T05:44:53;100791.44;;;11.23;88.54
39341;BME280;25059;52.132;21.062;2023-04-21T05:47:38;100794.56;;;11.34;88.14
39341;BME280;25059;52.132;21.062;2023-04-21T05:50:23;100788.09;;;11.43;86.53
39341;BME280;25059;52.132;21.062;2023-04-21T05:53:09;100796.38;;;11.57;84.96
39341;BME280;25059;52.132;21.062;2023-04-21T05:55:54;100781.44;;;11.57;84.51
39341;BME280;25059;52.132;21.062;2023-04-21T05:58:39;100781.97;;;11.67;84.15
39341;BME280;25059;52.132;21.062;2023-04-21T06:01:25;100786.41;;;11.90;82.44
39341;BME280;25059;52.132;21.062;2023-04-21T06:04:09;100778.50;;;11.90;81.06
39341;BME280;25059;52.132;21.062;2023-04-21T06:07:04;100779.47;;;12.11;79.62
39341;BME280;25059;52.132;21.062;2023-04-21T06:10:08;100774.69;;;12.20;77.72
39341;BME280;25059;52.132;21.062;2023-04-21T06:12:53;100776.81;;;12.34;77.14
39341;BME280;25059;52.132;21.062;2023-04-21T06:16:01;100776.69;;;12.37;75.75
39341;BME280;25059;52.132;21.062;2023-04-21T06:19:18;100775.38;;;12.69;75.28
39341;BME280;25059;52.132;21.062;2023-04-21T06:22:40;100773.84;;;12.85;74.40
39341;BME280;25059;52.132;21.062;2023-04-21T06:25:32;100773.78;;;12.87;74.44
39341;BME280;25059;52.132;21.062;2023-04-21T06:32:32;100776.25;;;13.12;70.95
39341;BME280;25059;52.132;21.062;2023-04-21T06:35:24;100761.84;;;12.99;70.73
39341;BME280;25059;52.132;21.062;2023-04-21T06:38:09;100774.09;;;13.21;69.88
39341;BME280;25059;52.132;21.062;2023-04-21T06:40:54;100772.84;;;13.30;69.12
39341;BME280;25059;52.132;21.062;2023-04-21T06:43:43;100751.63;;;13.11;68.24
39341;BME280;25059;52.132;21.062;2023-04-21T06:46:34;100773.03;;;13.46;67.84
39341;BME280;25059;52.132;21.062;2023-04-21T06:49:24;100773.84;;;13.67;68.02
39341;BME280;25059;52.132;21.062;2023-04-21T06:52:14;100760.50;;;13.70;65.89
39341;BME280;25059;52.132;21.062;2023-04-21T06:54:59;100762.50;;;13.65;65.50
39341;BME280;25059;52.132;21.062;2023-04-21T07:01:04;100748.66;;;13.97;63.80
39341;BME280;25059;52.132;21.062;2023-04-21T07:08:52;100759.59;;;14.46;61.10
39341;BME280;25059;52.132;21.062;2023-04-21T07:16:53;100757.94;;;14.79;57.49
39341;BME280;25059;52.132;21.062;2023-04-21T07:19:52;100762.38;;;14.79;57.59
39341;BME280;25059;52.132;21.062;2023-04-21T07:23:44;100755.22;;;15.15;56.89
39341;BME280;25059;52.132;21.062;2023-04-21T07:26:43;100756.69;;;15.21;53.58
39341;BME280;25059;52.132;21.062;2023-04-21T07:29:43;100756.75;;;15.37;54.01
39341;BME280;25059;52.132;21.062;2023-04-21T07:36:34;100751.31;;;15.57;51.53
39341;BME280;25059;52.132;21.062;2023-04-21T07:43:30;100751.94;;;15.78;49.66
39341;BME280;25059;52.132;21.062;2023-04-21T07:46:34;100747.00;;;15.88;49.24
39341;BME280;25059;52.132;21.062;2023-04-21T07:50:32;100743.25;;;16.07;49.26
39341;BME280;25059;52.132;21.062;2023-04-21T08:03:12;100738.00;;;16.69;44.97
39341;BME280;25059;52.132;21.062;2023-04-21T08:18:28;100727.72;;;17.37;42.13
39341;BME280;25059;52.132;21.062;2023-04-21T08:25:58;100729.53;;;17.36;39.03
39341;BME280;25059;52.132;21.062;2023-04-21T08:37:24;100720.06;;;17.75;38.67
39341;BME280;25059;52.132;21.062;2023-04-21T08:40:44;100714.28;;;17.83;36.98
39341;BME280;25059;52.132;21.062;2023-04-21T08:43:54;100716.16;;;17.95;38.43
39341;BME280;25059;52.132;21.062;2023-04-21T08:51:08;100706.56;;;18.33;33.26
39341;BME280;25059;52.132;21.062;2023-04-21T08:55:10;100708.91;;;18.38;34.25
39341;BME280;25059;52.132;21.062;2023-04-21T08:58:20;100691.28;;;18.23;34.67
39341;BME280;25059;52.132;21.062;2023-04-21T09:06:06;100703.69;;;19.16;33.01
39341;BME280;25059;52.132;21.062;2023-04-21T09:13:37;100698.34;;;18.90;32.75
39341;BME280;25059;52.132;21.062;2023-04-21T09:16:34;100692.34;;;18.87;33.43
39341;BME280;25059;52.132;21.062;2023-04-21T09:19:19;100693.91;;;18.64;32.57
39341;BME280;25059;52.132;21.062;2023-04-21T09:25:56;100690.94;;;18.68;32.71
39341;BME280;25059;52.132;21.062;2023-04-21T09:26:29;100684.25;;;18.76;32.25
39341;BME280;25059;52.132;21.062;2023-04-21T09:33:32;100683.63;;;18.85;33.35
39341;BME280;25059;52.132;21.062;2023-04-21T10:04:30;100654.81;;;19.66;31.35
39341;BME280;25059;52.132;21.062;2023-04-21T10:07:26;100642.00;;;19.71;31.42
39341;BME280;25059;52.132;21.062;2023-04-21T10:13:25;100632.75;;;22.59;27.88
39341;BME280;25059;52.132;21.062;2023-04-21T10:16:11;100626.53;;;24.98;26.64
39341;BME280;25059;52.132;21.062;2023-04-21T10:19:23;100630.06;;;27.15;23.67
39341;BME280;25059;52.132;21.062;2023-04-21T10:22:38;100619.84;;;29.08;21.35
39341;BME280;25059;52.132;21.062;2023-04-21T10:25:28;100620.88;;;30.25;19.16
39341;BME280;25059;52.132;21.062;2023-04-21T10:28:17;100620.56;;;31.17;18.00
39341;BME280;25059;52.132;21.062;2023-04-21T10:31:17;100616.69;;;31.86;17.76
39341;BME280;25059;52.132;21.062;2023-04-21T10:34:34;100623.84;;;31.72;17.14
39341;BME280;25059;52.132;21.062;2023-04-21T10:37:30;100621.94;;;32.23;16.20
39341;BME280;25059;52.132;21.062;2023-04-21T10:40:35;100610.91;;;33.30;16.13
39341;BME280;25059;52.132;21.062;2023-04-21T10:46:57;100600.16;;;36.12;14.06
39341;BME280;25059;52.132;21.062;2023-04-21T10:49:49;100599.69;;;35.33;13.41
39341;BME280;25059;52.132;21.062;2023-04-21T10:53:07;100606.44;;;35.17;13.77
39341;BME280;25059;52.132;21.062;2023-04-21T10:56:12;100606.63;;;35.28;14.09
39341;BME280;25059;52.132;21.062;2023-04-21T10:59:35;100593.09;;;35.98;12.91
39341;BME280;25059;52.132;21.062;2023-04-21T11:03:01;100595.63;;;36.31;13.21
39341;BME280;25059;52.132;21.062;2023-04-21T11:05:56;100587.88;;;36.78;12.21
39341;BME280;25059;52.132;21.062;2023-04-21T11:09:42;100590.84;;;36.20;12.10
39341;BME280;25059;52.132;21.062;2023-04-21T11:20:39;100568.13;;;37.49;11.88
39341;BME280;25059;52.132;21.062;2023-04-21T11:23:48;100560.22;;;38.19;11.74
39341;BME280;25059;52.132;21.062;2023-04-21T11:27:07;100552.84;;;38.90;10.58
39341;BME280;25059;52.132;21.062;2023-04-21T11:29:52;100562.16;;;38.42;10.93
39341;BME280;25059;52.132;21.062;2023-04-21T11:32:41;100547.78;;;38.17;11.13
39341;BME280;25059;52.132;21.062;2023-04-21T11:35:55;100542.06;;;38.41;10.54
39341;BME280;25059;52.132;21.062;2023-04-21T11:38:52;100547.97;;;38.68;11.18
39341;BME280;25059;52.132;21.062;2023-04-21T11:55:40;100538.09;;;39.88;10.49
39341;BME280;25059;52.132;21.062;2023-04-21T11:58:28;100534.91;;;38.40;9.75
39341;BME280;25059;52.132;21.062;2023-04-21T12:01:22;100530.38;;;38.58;10.29
39341;BME280;25059;52.132;21.062;2023-04-21T12:04:33;100527.84;;;39.03;10.70
39341;BME280;25059;52.132;21.062;2023-04-21T12:07:22;100522.22;;;40.23;9.63
39341;BME280;25059;52.132;21.062;2023-04-21T12:10:15;100522.81;;;39.00;9.72
39341;BME280;25059;52.132;21.062;2023-04-21T12:13:11;100513.72;;;39.80;10.96
39341;BME280;25059;52.132;21.062;2023-04-21T12:16:20;100508.91;;;39.30;9.52
39341;BME280;25059;52.132;21.062;2023-04-21T12:19:36;100509.69;;;39.42;10.18
39341;BME280;25059;52.132;21.062;2023-04-21T12:26:51;100492.06;;;39.15;10.43
39341;BME280;25059;52.132;21.062;2023-04-21T12:29:49;100493.25;;;39.19;10.75
39341;BME280;25059;52.132;21.062;2023-04-21T12:32:44;100502.00;;;39.56;9.77
39341;BME280;25059;52.132;21.062;2023-04-21T12:39:28;100483.00;;;39.14;9.27
39341;BME280;25059;52.132;21.062;2023-04-21T12:42:13;100506.66;;;40.84;9.72
39341;BME280;25059;52.132;21.062;2023-04-21T12:44:59;100493.25;;;40.93;8.75
39341;BME280;25059;52.132;21.062;2023-04-21T12:47:47;100487.47;;;38.57;9.60
39341;BME280;25059;52.132;21.062;2023-04-21T12:50:32;100471.00;;;37.02;10.33
39341;BME280;25059;52.132;21.062;2023-04-21T12:53:16;100466.28;;;38.92;10.02
39341;BME280;25059;52.132;21.062;2023-04-21T12:56:02;100481.38;;;41.14;9.41
39341;BME280;25059;52.132;21.062;2023-04-21T12:58:48;100472.25;;;42.21;7.61
39341;BME280;25059;52.132;21.062;2023-04-21T13:01:33;100462.22;;;42.47;8.24
39341;BME280;25059;52.132;21.062;2023-04-21T13:04:25;100471.41;;;42.58;7.89
39341;BME280;25059;52.132;21.062;2023-04-21T13:07:12;100463.22;;;40.96;8.36
39341;BME280;25059;52.132;21.062;2023-04-21T13:09:59;100472.69;;;41.76;8.06
39341;BME280;25059;52.132;21.062;2023-04-21T13:12:44;100459.56;;;39.40;9.23
39341;BME280;25059;52.132;21.062;2023-04-21T13:15:29;100452.16;;;40.75;8.39
39341;BME280;25059;52.132;21.062;2023-04-21T13:18:18;100461.03;;;41.20;8.38
39341;BME280;25059;52.132;21.062;2023-04-21T13:21:06;100459.38;;;43.98;7.49
39341;BME280;25059;52.132;21.062;2023-04-21T13:23:51;100445.03;;;42.93;7.39
39341;BME280;25059;52.132;21.062;2023-04-21T13:26:37;100449.06;;;43.42;7.15
39341;BME280;25059;52.132;21.062;2023-04-21T13:29:25;100449.41;;;44.12;7.19
39341;BME280;25059;52.132;21.062;2023-04-21T13:32:12;100445.66;;;44.83;6.89
39341;BME280;25059;52.132;21.062;2023-04-21T13:35:12;100447.81;;;44.96;6.80
39341;BME280;25059;52.132;21.062;2023-04-21T13:37:57;100443.94;;;46.43;6.62
39341;BME280;25059;52.132;21.062;2023-04-21T13:40:57;100446.84;;;45.26;7.13
39341;BME280;25059;52.132;21.062;2023-04-21T13:43:45;100451.03;;;45.13;6.29
39341;BME280;25059;52.132;21.062;2023-04-21T13:46:56;100442.19;;;48.35;5.86
39341;BME280;25059;52.132;21.062;2023-04-21T13:49:40;100432.53;;;48.00;5.79
39341;BME280;25059;52.132;21.062;2023-04-21T13:52:26;100416.75;;;47.02;5.31
39341;BME280;25059;52.132;21.062;2023-04-21T13:55:13;100434.66;;;48.77;5.56
39341;BME280;25059;52.132;21.062;2023-04-21T13:57:58;100424.50;;;47.80;5.91
39341;BME280;25059;52.132;21.062;2023-04-21T14:00:45;100418.41;;;46.36;6.42
39341;BME280;25059;52.132;21.062;2023-04-21T14:03:32;100427.16;;;45.56;6.85
39341;BME280;25059;52.132;21.062;2023-04-21T14:06:19;100433.19;;;47.03;6.15
39341;BME280;25059;52.132;21.062;2023-04-21T14:09:04;100436.78;;;46.85;5.94
39341;BME280;25059;52.132;21.062;2023-04-21T14:12:17;100443.38;;;47.50;6.02
39341;BME280;25059;52.132;21.062;2023-04-21T14:15:04;100454.28;;;46.09;6.25
39341;BME280;25059;52.132;21.062;2023-04-21T14:17:52;100459.97;;;45.59;6.75
39341;BME280;25059;52.132;21.062;2023-04-21T14:20:37;100456.88;;;47.01;6.26
39341;BME280;25059;52.132;21.062;2023-04-21T14:23:22;100447.50;;;48.64;5.94
39341;BME280;25059;52.132;21.062;2023-04-21T14:26:09;100430.41;;;47.41;5.53
39341;BME280;25059;52.132;21.062;2023-04-21T14:28:53;100412.19;;;47.11;5.58
39341;BME280;25059;52.132;21.062;2023-04-21T14:31:50;100408.66;;;48.08;6.18
39341;BME280;25059;52.132;21.062;2023-04-21T14:34:37;100404.25;;;46.80;5.70
39341;BME280;25059;52.132;21.062;2023-04-21T14:37:21;100388.91;;;44.34;6.88
39341;BME280;25059;52.132;21.062;2023-04-21T14:40:07;100379.28;;;45.69;6.34
39341;BME280;25059;52.132;21.062;2023-04-21T14:42:52;100386.00;;;45.97;6.76
39341;BME280;25059;52.132;21.062;2023-04-21T14:45:37;100382.75;;;44.58;6.41
39341;BME280;25059;52.132;21.062;2023-04-21T14:48:21;100378.84;;;45.52;6.76
39341;BME280;25059;52.132;21.062;2023-04-21T14:51:06;100372.31;;;45.38;6.83
39341;BME280;25059;52.132;21.062;2023-04-21T14:53:52;100357.84;;;45.41;6.86
39341;BME280;25059;52.132;21.062;2023-04-21T14:56:37;100356.22;;;42.99;7.20
39341;BME280;25059;52.132;21.062;2023-04-21T14:59:28;100354.78;;;42.29;7.79
39341;BME280;25059;52.132;21.062;2023-04-21T15:02:13;100347.63;;;43.06;7.62
39341;BME280;25059;52.132;21.062;2023-04-21T15:05:01;100344.91;;;43.87;7.25
39341;BME280;25059;52.132;21.062;2023-04-21T15:07:51;100325.97;;;42.15;7.40
39341;BME280;25059;52.132;21.062;2023-04-21T15:10:36;100329.22;;;41.06;7.65
39341;BME280;25059;52.132;21.062;2023-04-21T15:13:25;100341.56;;;40.98;8.37
39341;BME280;25059;52.132;21.062;2023-04-21T15:16:10;100341.84;;;41.55;7.79
39341;BME280;25059;52.132;21.062;2023-04-21T15:18:54;100337.72;;;41.95;7.88
39341;BME280;25059;52.132;21.062;2023-04-21T15:21:39;100336.06;;;39.94;8.58
39341;BME280;25059;52.132;21.062;2023-04-21T15:24:23;100342.44;;;39.32;9.00
39341;BME280;25059;52.132;21.062;2023-04-21T15:30:55;100331.38;;;39.44;9.00
39341;BME280;25059;52.132;21.062;2023-04-21T15:33:40;100337.06;;;38.05;9.33
39341;BME280;25059;52.132;21.062;2023-04-21T15:36:28;100322.88;;;38.08;9.51
39341;BME280;25059;52.132;21.062;2023-04-21T15:39:14;100334.59;;;37.27;9.63
39341;BME280;25059;52.132;21.062;2023-04-21T15:41:59;100316.63;;;36.53;10.22
39341;BME280;25059;52.132;21.062;2023-04-21T15:44:46;100306.91;;;36.39;10.24
39341;BME280;25059;52.132;21.062;2023-04-21T15:47:31;100315.69;;;36.04;10.26
39341;BME280;25059;52.132;21.062;2023-04-21T15:50:16;100328.53;;;35.85;10.59
39341;BME280;25059;52.132;21.062;2023-04-21T15:53:03;100305.78;;;33.48;11.54
39341;BME280;25059;52.132;21.062;2023-04-21T15:55:57;100320.16;;;32.07;12.40
39341;BME280;25059;52.132;21.062;2023-04-21T15:58:42;100326.31;;;31.38;13.28
39341;BME280;25059;52.132;21.062;2023-04-21T16:01:27;100315.50;;;29.32;14.28
39341;BME280;25059;52.132;21.062;2023-04-21T16:04:11;100317.28;;;28.32;15.39
39341;BME280;25059;52.132;21.062;2023-04-21T16:07:02;100319.16;;;28.15;15.31
39341;BME280;25059;52.132;21.062;2023-04-21T16:09:46;100313.69;;;27.68;15.44
39341;BME280;25059;52.132;21.062;2023-04-21T16:12:31;100319.41;;;27.89;15.52
39341;BME280;25059;52.132;21.062;2023-04-21T16:15:17;100304.56;;;27.85;15.32
39341;BME280;25059;52.132;21.062;2023-04-21T16:18:01;100319.25;;;27.83;15.91
39341;BME280;25059;52.132;21.062;2023-04-21T16:20:49;100320.09;;;27.75;16.74
39341;BME280;25059;52.132;21.062;2023-04-21T16:23:36;100325.50;;;27.26;16.59
39341;BME280;25059;52.132;21.062;2023-04-21T16:26:21;100322.28;;;27.88;16.88
39341;BME280;25059;52.132;21.062;2023-04-21T16:29:06;100320.41;;;27.96;16.38
39341;BME280;25059;52.132;21.062;2023-04-21T16:31:50;100318.06;;;27.85;17.09
39341;BME280;25059;52.132;21.062;2023-04-21T16:34:35;100318.78;;;27.63;16.53
39341;BME280;25059;52.132;21.062;2023-04-21T16:37:21;100317.91;;;27.38;16.94
39341;BME280;25059;52.132;21.062;2023-04-21T16:40:19;100328.41;;;26.75;17.43
39341;BME280;25059;52.132;21.062;2023-04-21T16:43:05;100325.22;;;26.79;18.03
39341;BME280;25059;52.132;21.062;2023-04-21T16:45:50;100321.31;;;25.71;19.20
39341;BME280;25059;52.132;21.062;2023-04-21T16:48:34;100324.22;;;24.71;20.11
39341;BME280;25059;52.132;21.062;2023-04-21T16:51:21;100318.91;;;24.25;20.64
39341;BME280;25059;52.132;21.062;2023-04-21T16:54:07;100316.13;;;23.79;21.20
39341;BME280;25059;52.132;21.062;2023-04-21T16:56:52;100326.75;;;23.42;22.23
39341;BME280;25059;52.132;21.062;2023-04-21T16:59:41;100330.63;;;22.71;23.33
39341;BME280;25059;52.132;21.062;2023-04-21T17:02:27;100336.31;;;22.37;23.67
39341;BME280;25059;52.132;21.062;2023-04-21T17:05:12;100323.66;;;21.67;24.29
39341;BME280;25059;52.132;21.062;2023-04-21T17:07:58;100330.47;;;21.18;25.14
39341;BME280;25059;52.132;21.062;2023-04-21T17:10:43;100316.44;;;20.51;25.80